createdAt,value
2023-02-06T00:01:53.059Z,22.80
2023-02-06T00:04:19.556Z,29.70
2023-02-06T00:06:46.096Z,27.40
2023-02-06T00:09:12.548Z,29.40
2023-02-06T00:11:39.039Z,30.90
2023-02-06T00:14:06.358Z,32.20
2023-02-06T00:16:34.095Z,31.60
2023-02-06T00:19:00.843Z,29.80
2023-02-06T00:21:28.397Z,29.60
2023-02-06T00:23:57.166Z,27.70
2023-02-06T00:26:24.005Z,25.00
2023-02-06T00:28:51.041Z,25.60
2023-02-06T00:31:17.990Z,25.40
2023-02-06T00:33:44.392Z,25.60
2023-02-06T00:36:11.249Z,24.60
2023-02-06T00:38:38.237Z,25.30
2023-02-06T00:43:31.411Z,24.70
2023-02-06T00:45:58.066Z,25.50
2023-02-06T00:48:25.053Z,26.50
2023-02-06T00:50:52.059Z,26.20
2023-02-06T00:53:18.598Z,26.10
2023-02-06T00:55:45.210Z,19.70
2023-02-06T00:58:11.632Z,26.40
2023-02-06T01:00:38.188Z,26.30
2023-02-06T01:03:04.535Z,27.00
2023-02-06T01:05:31.544Z,27.40
2023-02-06T01:07:58.023Z,28.70
2023-02-06T01:10:24.664Z,29.40
2023-02-06T01:12:51.150Z,28.40
2023-02-06T01:15:17.665Z,21.50
2023-02-06T01:17:44.139Z,29.40
2023-02-06T01:20:11.530Z,22.20
2023-02-06T01:22:38.107Z,28.70
2023-02-06T01:25:05.009Z,27.60
2023-02-06T01:27:31.530Z,28.50
2023-02-06T01:29:57.972Z,27.50
2023-02-06T01:32:24.340Z,28.10
2023-02-06T01:34:50.846Z,28.50
2023-02-06T01:37:17.844Z,26.50
2023-02-06T01:39:44.735Z,27.40
2023-02-06T01:42:12.076Z,25.60
2023-02-06T01:44:39.046Z,26.30
2023-02-06T01:47:05.381Z,22.20
2023-02-06T01:49:40.547Z,24.70
2023-02-06T01:52:06.820Z,24.30
2023-02-06T01:54:33.861Z,26.10
2023-02-06T01:57:03.819Z,25.80
2023-02-06T01:59:30.268Z,27.20
2023-02-06T02:01:56.935Z,27.00
2023-02-06T02:04:24.881Z,24.50
2023-02-06T02:07:14.575Z,23.80
2023-02-06T02:09:41.172Z,27.10
2023-02-06T02:12:07.528Z,26.30
2023-02-06T02:14:34.941Z,25.00
2023-02-06T02:17:01.391Z,23.10
2023-02-06T02:19:46.555Z,24.30
2023-02-06T02:22:31.797Z,22.40
2023-02-06T02:25:01.370Z,22.20
2023-02-06T02:27:46.288Z,23.00
2023-02-06T02:30:38.678Z,23.50
2023-02-06T02:33:24.847Z,23.50
2023-02-06T02:36:24.013Z,23.40
2023-02-06T02:39:02.648Z,22.70
2023-02-06T02:41:42.383Z,22.50
2023-02-06T02:44:23.278Z,22.70
2023-02-06T02:46:52.218Z,22.00
2023-02-06T02:49:24.642Z,22.80
2023-02-06T02:51:51.277Z,22.70
2023-02-06T02:54:17.811Z,23.90
2023-02-06T02:56:44.648Z,25.70
2023-02-06T02:59:27.518Z,24.90
2023-02-06T03:01:57.267Z,23.80
2023-02-06T03:04:26.220Z,23.40
2023-02-06T03:06:59.190Z,23.30
2023-02-06T03:09:45.937Z,24.80
2023-02-06T03:12:17.124Z,24.30
2023-02-06T03:14:50.479Z,24.30
2023-02-06T03:17:21.022Z,23.30
2023-02-06T03:19:49.707Z,23.60
2023-02-06T03:22:16.740Z,24.20
2023-02-06T03:27:12.773Z,24.60
2023-02-06T03:29:40.968Z,24.80
2023-02-06T03:32:12.931Z,25.20
2023-02-06T03:34:39.257Z,25.00
2023-02-06T03:37:05.996Z,24.90
2023-02-06T03:39:32.768Z,24.30
2023-02-06T03:42:00.588Z,23.90
2023-02-06T03:44:29.801Z,24.80
2023-02-06T03:46:58.184Z,24.30
2023-02-06T03:49:27.154Z,23.40
2023-02-06T03:51:59.404Z,23.20
2023-02-06T03:54:26.784Z,24.40
2023-02-06T03:56:55.790Z,21.70
2023-02-06T03:59:23.144Z,23.30
2023-02-06T04:01:54.564Z,22.30
2023-02-06T04:04:28.236Z,21.70
2023-02-06T04:07:00.030Z,23.20
2023-02-06T04:09:26.490Z,20.70
2023-02-06T04:11:52.890Z,21.50
2023-02-06T04:14:19.342Z,21.10
2023-02-06T04:16:45.803Z,16.20
2023-02-06T04:19:13.543Z,20.70
2023-02-06T04:21:40.607Z,21.00
2023-02-06T04:24:08.834Z,19.80
2023-02-06T04:26:35.260Z,19.30
2023-02-06T04:29:01.674Z,19.90
2023-02-06T04:31:28.134Z,21.70
2023-02-06T04:33:54.491Z,20.10
2023-02-06T04:36:21.684Z,18.70
2023-02-06T04:41:14.522Z,16.50
2023-02-06T04:43:41.045Z,16.00
2023-02-06T04:46:07.695Z,16.10
2023-02-06T04:48:34.516Z,12.50
2023-02-06T04:51:01.118Z,16.30
2023-02-06T04:53:27.647Z,16.50
2023-02-06T04:56:00.497Z,15.60
2023-02-06T04:58:27.002Z,16.30
2023-02-06T05:00:53.527Z,14.80
2023-02-06T05:03:20.481Z,15.20
2023-02-06T05:08:13.868Z,13.70
2023-02-06T05:10:40.437Z,15.20
2023-02-06T05:13:07.634Z,15.60
2023-02-06T05:15:38.171Z,16.10
2023-02-06T05:18:05.806Z,16.20
2023-02-06T05:20:32.483Z,15.30
2023-02-06T05:22:59.094Z,15.70
2023-02-06T05:25:25.581Z,15.40
2023-02-06T05:27:52.478Z,15.50
2023-02-06T05:30:19.017Z,15.80
2023-02-06T05:32:45.673Z,16.70
2023-02-06T05:35:12.290Z,16.60
2023-02-06T05:37:38.923Z,16.60
2023-02-06T05:40:05.969Z,16.40
2023-02-06T05:42:33.008Z,15.50
2023-02-06T05:45:00.064Z,16.30
2023-02-06T05:47:26.590Z,16.90
2023-02-06T05:49:53.125Z,16.30
2023-02-06T05:52:19.881Z,16.00
2023-02-06T05:54:46.331Z,15.90
2023-02-06T05:57:12.797Z,18.50
2023-02-06T05:59:39.292Z,17.80
2023-02-06T06:02:06.608Z,14.20
2023-02-06T06:04:33.571Z,17.10
2023-02-06T06:07:00.703Z,18.30
2023-02-06T06:09:27.429Z,18.60
2023-02-06T06:11:54.313Z,18.60
2023-02-06T06:14:21.349Z,19.70
2023-02-06T06:16:48.594Z,18.80
2023-02-06T06:19:15.386Z,18.50
2023-02-06T06:21:41.792Z,14.40
2023-02-06T06:24:08.401Z,18.60
2023-02-06T06:26:35.044Z,19.20
2023-02-06T06:29:01.981Z,19.60
2023-02-06T06:31:28.660Z,18.40
2023-02-06T06:33:55.392Z,17.80
2023-02-06T06:36:22.201Z,19.30
2023-02-06T06:38:48.687Z,17.60
2023-02-06T06:41:15.265Z,20.00
2023-02-06T06:43:42.004Z,19.90
2023-02-06T06:46:08.621Z,19.00
2023-02-06T06:48:37.531Z,19.10
2023-02-06T06:51:04.571Z,19.40
2023-02-06T06:53:31.342Z,18.40
2023-02-06T06:56:09.647Z,18.90
2023-02-06T06:58:36.885Z,19.60
2023-02-06T07:01:04.358Z,18.80
2023-02-06T07:03:31.351Z,19.90
2023-02-06T07:05:57.949Z,21.50
2023-02-06T07:08:24.554Z,21.90
2023-02-06T07:10:50.991Z,21.20
2023-02-06T07:13:18.383Z,23.10
2023-02-06T07:15:46.102Z,22.40
2023-02-06T07:20:39.293Z,21.30
2023-02-06T07:23:06.213Z,21.10
2023-02-06T07:25:34.115Z,22.00
2023-02-06T07:28:01.303Z,21.60
2023-02-06T07:30:27.973Z,21.50
2023-02-06T07:32:54.487Z,25.00
2023-02-06T07:35:21.042Z,23.30
2023-02-06T07:37:47.520Z,22.00
2023-02-06T07:40:14.041Z,21.40
2023-02-06T07:42:40.563Z,16.50
2023-02-06T07:45:07.338Z,20.40
2023-02-06T07:47:33.915Z,21.70
2023-02-06T07:50:00.363Z,19.90
2023-02-06T07:52:26.930Z,21.70
2023-02-06T07:54:53.374Z,22.20
2023-02-06T07:57:20.043Z,23.00
2023-02-06T07:59:46.690Z,22.60
2023-02-06T08:02:13.636Z,22.20
2023-02-06T08:04:41.033Z,22.50
2023-02-06T08:07:10.695Z,23.10
2023-02-06T08:09:37.161Z,22.50
2023-02-06T08:12:03.760Z,17.40
2023-02-06T08:14:30.710Z,23.10
2023-02-06T08:16:57.847Z,22.80
2023-02-06T08:19:24.887Z,23.70
2023-02-06T08:21:51.441Z,22.90
2023-02-06T08:24:17.930Z,23.20
2023-02-06T08:26:44.616Z,21.50
2023-02-06T08:29:11.668Z,21.20
2023-02-06T08:31:39.292Z,21.00
2023-02-06T08:34:06.952Z,19.40
2023-02-06T08:36:33.724Z,20.70
2023-02-06T08:39:00.948Z,21.00
2023-02-06T08:43:57.007Z,17.60
2023-02-06T08:46:24.861Z,17.70
2023-02-06T08:48:58.436Z,19.00
2023-02-06T08:51:27.293Z,20.00
2023-02-06T08:54:00.294Z,18.50
2023-02-06T08:56:28.410Z,20.80
2023-02-06T08:58:56.462Z,18.10
2023-02-06T09:01:23.265Z,17.10
2023-02-06T09:03:53.549Z,17.90
2023-02-06T09:06:19.965Z,17.40
2023-02-06T09:08:46.518Z,18.90
2023-02-06T09:11:17.260Z,18.30
2023-02-06T09:13:49.032Z,16.50
2023-02-06T09:16:19.195Z,16.20
2023-02-06T09:18:46.280Z,16.20
2023-02-06T09:21:17.162Z,15.10
2023-02-06T09:23:45.129Z,14.50
2023-02-06T09:26:12.516Z,15.70
2023-02-06T09:31:09.352Z,13.80
2023-02-06T09:33:39.336Z,15.00
2023-02-06T09:36:09.915Z,14.90
2023-02-06T09:38:38.234Z,15.00
2023-02-06T09:41:05.965Z,15.20
2023-02-06T09:43:33.260Z,15.80
2023-02-06T09:48:28.326Z,19.30
2023-02-06T09:50:55.251Z,19.00
2023-02-06T09:53:29.517Z,16.80
2023-02-06T09:56:13.951Z,15.00
2023-02-06T09:58:46.944Z,11.00
2023-02-06T10:01:14.084Z,11.10
2023-02-06T10:03:59.800Z,14.80
2023-02-06T10:06:27.500Z,11.40
2023-02-06T10:09:01.241Z,10.50
2023-02-06T10:11:28.190Z,9.80
2023-02-06T10:13:56.757Z,9.80
2023-02-06T10:16:26.598Z,9.50
2023-02-06T10:18:55.324Z,10.60
2023-02-06T10:21:30.905Z,10.10
2023-02-06T10:24:01.925Z,9.40
2023-02-06T10:26:28.711Z,10.70
2023-02-06T10:28:57.485Z,13.50
2023-02-06T10:31:24.284Z,14.90
2023-02-06T10:34:06.818Z,14.00
2023-02-06T10:36:38.884Z,13.60
2023-02-06T10:39:24.668Z,13.30
2023-02-06T10:42:03.598Z,12.10
2023-02-06T10:44:34.162Z,12.10
2023-02-06T10:47:00.817Z,11.10
2023-02-06T10:49:33.644Z,11.30
2023-02-06T10:52:01.929Z,10.40
2023-02-06T10:54:34.262Z,10.60
2023-02-06T10:57:01.448Z,9.70
2023-02-06T10:59:37.292Z,10.70
2023-02-06T11:02:07.064Z,11.10
2023-02-06T11:04:38.763Z,10.60
2023-02-06T11:07:11.953Z,12.20
2023-02-06T11:09:38.483Z,12.20
2023-02-06T11:12:11.291Z,11.60
2023-02-06T11:14:38.511Z,10.90
2023-02-06T11:17:05.054Z,10.60
2023-02-06T11:19:34.579Z,11.80
2023-02-06T11:22:06.726Z,11.60
2023-02-06T11:24:34.200Z,12.30
2023-02-06T11:27:02.373Z,10.90
2023-02-06T11:29:28.838Z,12.90
2023-02-06T11:31:57.765Z,11.10
2023-02-06T11:34:29.748Z,10.70
2023-02-06T11:36:58.540Z,10.90
2023-02-06T11:39:36.125Z,11.10
2023-02-06T11:42:16.573Z,10.70
2023-02-06T11:44:44.136Z,10.20
2023-02-06T11:47:19.163Z,10.20
2023-02-06T11:49:46.210Z,7.60
2023-02-06T11:52:33.229Z,6.80
2023-02-06T11:57:31.211Z,5.70
2023-02-06T11:59:59.503Z,6.50
2023-02-06T12:02:26.211Z,6.10
2023-02-06T12:04:56.790Z,6.10
2023-02-06T12:07:29.852Z,4.90
2023-02-06T12:09:56.691Z,4.20
2023-02-06T12:12:26.404Z,5.00
2023-02-06T12:14:58.781Z,5.30
2023-02-06T12:17:33.277Z,5.50
2023-02-06T12:20:20.626Z,6.20
2023-02-06T12:22:53.292Z,5.40
2023-02-06T12:25:34.677Z,5.90
2023-02-06T12:28:21.641Z,6.00
2023-02-06T12:30:55.137Z,5.40
2023-02-06T12:33:35.768Z,6.60
2023-02-06T12:36:03.308Z,5.80
2023-02-06T12:41:05.997Z,6.30
2023-02-06T12:43:33.677Z,7.10
2023-02-06T12:46:03.295Z,6.30
2023-02-06T12:48:44.536Z,5.70
2023-02-06T12:51:29.092Z,7.30
2023-02-06T12:53:58.228Z,8.70
2023-02-06T12:56:45.406Z,7.40
2023-02-06T12:59:11.893Z,7.00
2023-02-06T13:01:41.588Z,6.50
2023-02-06T13:04:27.025Z,6.40
2023-02-06T13:07:02.478Z,6.70
2023-02-06T13:09:31.873Z,6.10
2023-02-06T13:12:12.490Z,6.60
2023-02-06T13:14:50.750Z,6.80
2023-02-06T13:17:31.430Z,6.40
2023-02-06T13:20:08.498Z,6.60
2023-02-06T13:22:35.664Z,7.50
2023-02-06T13:27:39.045Z,8.90
2023-02-06T13:30:20.835Z,8.30
2023-02-06T13:32:49.094Z,7.80
2023-02-06T13:35:20.883Z,17.50
2023-02-06T13:37:48.866Z,12.50
2023-02-06T13:40:29.931Z,10.20
2023-02-06T13:43:09.564Z,11.20
2023-02-06T13:45:45.671Z,7.30
2023-02-06T13:48:32.121Z,8.90
2023-02-06T13:51:05.523Z,6.50
2023-02-06T13:53:38.703Z,7.60
2023-02-06T13:56:24.701Z,7.70
2023-02-06T13:58:52.785Z,7.00
2023-02-06T14:01:28.375Z,6.80
2023-02-06T14:03:55.938Z,12.80
2023-02-06T14:06:46.073Z,14.90
2023-02-06T14:09:41.992Z,16.70
2023-02-06T14:12:48.744Z,8.00
2023-02-06T14:15:15.500Z,8.60
2023-02-06T14:17:45.852Z,5.30
2023-02-06T14:20:31.104Z,9.30
2023-02-06T14:22:57.605Z,7.50
2023-02-06T14:25:24.167Z,7.70
2023-02-06T14:28:06.513Z,10.80
2023-02-06T14:30:33.060Z,8.80
2023-02-06T14:32:59.873Z,15.40
2023-02-06T14:35:35.185Z,10.90
2023-02-06T14:38:22.593Z,8.10
2023-02-06T14:40:51.703Z,17.70
2023-02-06T14:43:20.338Z,8.20
2023-02-06T14:46:04.201Z,11.20
2023-02-06T14:48:43.869Z,14.90
2023-02-06T14:51:21.365Z,12.70
2023-02-06T14:53:59.723Z,8.10
2023-02-06T14:56:28.873Z,6.70
2023-02-06T14:58:55.584Z,5.10
2023-02-06T15:01:28.391Z,4.50
2023-02-06T15:04:08.639Z,4.10
2023-02-06T15:06:37.162Z,5.20
2023-02-06T15:09:04.389Z,4.00
2023-02-06T15:14:04.209Z,5.50
2023-02-06T15:16:44.048Z,4.90
2023-02-06T15:19:12.254Z,4.60
2023-02-06T15:21:40.644Z,5.00
2023-02-06T15:24:12.983Z,4.80
2023-02-06T15:26:48.929Z,7.80
2023-02-06T15:29:22.397Z,5.90
2023-02-06T15:31:50.299Z,7.30
2023-02-06T15:34:18.155Z,4.90
2023-02-06T15:36:45.314Z,4.80
2023-02-06T15:41:40.124Z,3.80
2023-02-06T15:44:11.773Z,5.40
2023-02-06T15:46:38.302Z,4.80
2023-02-06T15:49:06.373Z,5.70
2023-02-06T15:51:40.691Z,5.30
2023-02-06T15:54:08.889Z,8.30
2023-02-06T15:56:37.566Z,11.10
2023-02-06T15:59:06.294Z,19.50
2023-02-06T16:01:36.988Z,16.90
2023-02-06T16:04:07.296Z,12.90
2023-02-06T16:06:35.270Z,11.70
2023-02-06T16:09:08.152Z,12.40
2023-02-06T16:11:47.069Z,14.10
2023-02-06T16:14:19.026Z,14.00
2023-02-06T16:16:54.806Z,6.40
2023-02-06T16:19:47.630Z,5.40
2023-02-06T16:22:21.560Z,4.50
2023-02-06T16:24:49.406Z,4.00
2023-02-06T16:27:20.957Z,4.20
2023-02-06T16:29:49.224Z,4.10
2023-02-06T16:32:17.471Z,4.10
2023-02-06T16:34:46.064Z,4.50
2023-02-06T16:37:17.424Z,3.60
2023-02-06T16:39:46.628Z,4.60
2023-02-06T16:42:23.810Z,3.90
2023-02-06T16:47:18.317Z,4.40
2023-02-06T16:49:47.708Z,4.30
2023-02-06T16:52:19.979Z,5.10
2023-02-06T16:54:46.729Z,5.70
2023-02-06T16:57:18.687Z,5.40
2023-02-06T16:59:45.934Z,5.80
2023-02-06T17:02:13.083Z,6.80
2023-02-06T17:04:41.004Z,7.10
2023-02-06T17:07:15.941Z,6.40
2023-02-06T17:09:43.316Z,6.80
2023-02-06T17:14:36.321Z,5.10
2023-02-06T17:17:02.944Z,5.90
2023-02-06T17:19:29.675Z,6.20
2023-02-06T17:21:58.235Z,6.00
2023-02-06T17:24:24.640Z,5.90
2023-02-06T17:26:51.438Z,5.00
2023-02-06T17:29:18.863Z,6.30
2023-02-06T17:31:45.868Z,6.50
2023-02-06T17:34:12.469Z,6.40
2023-02-06T17:36:40.334Z,22.20
2023-02-06T17:39:07.172Z,18.60
2023-02-06T17:41:35.248Z,8.20
2023-02-06T17:44:02.088Z,6.50
2023-02-06T17:46:28.996Z,6.10
2023-02-06T17:48:56.210Z,5.90
2023-02-06T17:51:25.324Z,5.40
2023-02-06T17:53:52.123Z,6.20
2023-02-06T17:56:20.087Z,6.40
2023-02-06T17:58:46.493Z,6.20
2023-02-06T18:01:14.436Z,7.40
2023-02-06T18:03:41.488Z,7.00
2023-02-06T18:06:08.658Z,5.90
2023-02-06T18:08:35.829Z,9.50
2023-02-06T18:11:10.812Z,10.30
2023-02-06T18:13:38.729Z,14.50
2023-02-06T18:16:05.682Z,13.20
2023-02-06T18:18:33.788Z,12.30
2023-02-06T18:21:00.377Z,11.40
2023-02-06T18:23:28.028Z,9.10
2023-02-06T18:26:00.209Z,9.20
2023-02-06T18:28:26.953Z,8.40
2023-02-06T18:30:53.506Z,8.50
2023-02-06T18:33:20.137Z,10.80
2023-02-06T18:35:50.562Z,9.50
2023-02-06T18:38:17.894Z,8.70
2023-02-06T18:40:46.111Z,8.60
2023-02-06T18:43:13.827Z,9.20
2023-02-06T18:45:41.207Z,8.90
2023-02-06T18:50:35.184Z,8.30
2023-02-06T18:53:02.729Z,8.10
2023-02-06T18:55:29.675Z,7.90
2023-02-06T19:00:24.174Z,8.80
2023-02-06T19:02:50.957Z,10.40
2023-02-06T19:05:19.298Z,10.90
2023-02-06T19:07:50.036Z,12.60
2023-02-06T19:10:16.881Z,16.80
2023-02-06T19:12:44.027Z,18.00
2023-02-06T19:15:11.173Z,27.00
2023-02-06T19:17:38.241Z,15.80
2023-02-06T19:20:05.568Z,9.70
2023-02-06T19:24:59.971Z,8.10
2023-02-06T19:27:26.619Z,9.90
2023-02-06T19:29:53.447Z,9.30
2023-02-06T19:32:20.504Z,11.40
2023-02-06T19:34:47.760Z,14.30
2023-02-06T19:37:14.488Z,15.00
2023-02-06T19:39:42.653Z,15.20
2023-02-06T19:42:10.337Z,11.70
2023-02-06T19:44:37.768Z,10.10
2023-02-06T19:47:05.025Z,8.20
2023-02-06T19:51:59.020Z,6.90
2023-02-06T19:54:26.279Z,6.90
2023-02-06T19:56:53.413Z,7.10
2023-02-06T20:01:49.351Z,7.60
2023-02-06T20:04:16.698Z,12.60
2023-02-06T20:06:44.002Z,15.60
2023-02-06T20:09:11.611Z,18.00
2023-02-06T20:11:39.070Z,19.40
2023-02-06T20:14:06.115Z,20.40
2023-02-06T20:16:35.202Z,23.90
2023-02-06T20:19:12.597Z,33.20
2023-02-06T20:24:14.787Z,29.00
2023-02-06T20:26:42.350Z,29.40
2023-02-06T20:29:11.025Z,28.50
2023-02-06T20:31:37.636Z,27.30
2023-02-06T20:34:05.060Z,23.70
2023-02-06T20:36:31.765Z,23.60
2023-02-06T20:38:59.832Z,18.00
2023-02-06T20:41:28.650Z,14.60
2023-02-06T20:43:56.786Z,12.10
2023-02-06T20:46:27.418Z,11.00
2023-02-06T20:48:58.550Z,10.50
2023-02-06T20:51:26.531Z,10.80
2023-02-06T20:53:53.575Z,9.70
2023-02-06T20:56:20.929Z,9.70
2023-02-06T20:58:52.342Z,16.50
2023-02-06T21:01:21.902Z,16.60
2023-02-06T21:03:49.546Z,16.40
2023-02-06T21:06:16.689Z,15.30
2023-02-06T21:08:45.781Z,12.20
2023-02-06T21:11:13.349Z,11.20
2023-02-06T21:13:40.898Z,14.60
2023-02-06T21:16:08.813Z,14.50
2023-02-06T21:18:36.318Z,14.70
2023-02-06T21:21:08.954Z,15.70
2023-02-06T21:23:37.380Z,17.90
2023-02-06T21:26:05.044Z,16.20
2023-02-06T21:28:32.706Z,16.20
2023-02-06T21:31:04.639Z,16.90
2023-02-06T21:33:33.568Z,15.40
2023-02-06T21:36:03.103Z,15.20
2023-02-06T21:38:30.933Z,15.10
2023-02-06T21:41:03.090Z,14.40
2023-02-06T21:43:29.912Z,13.10
2023-02-06T21:45:57.974Z,12.30
2023-02-06T21:48:24.739Z,13.80
2023-02-06T21:50:51.387Z,14.50
2023-02-06T21:53:20.488Z,14.00
2023-02-06T21:55:47.219Z,14.60
2023-02-06T21:58:14.264Z,14.50
2023-02-06T22:03:07.695Z,13.00
2023-02-06T22:05:35.361Z,13.60
2023-02-06T22:10:28.600Z,16.30
2023-02-06T22:12:55.416Z,17.30
2023-02-06T22:15:22.004Z,17.50
2023-02-06T22:17:48.850Z,17.40
2023-02-06T22:20:16.389Z,17.50
2023-02-06T22:22:43.291Z,18.50
2023-02-06T22:25:11.260Z,17.30
2023-02-06T22:27:38.184Z,19.50
2023-02-06T22:30:05.553Z,18.90
2023-02-06T22:32:35.517Z,19.60
2023-02-06T22:35:02.779Z,17.00
2023-02-06T22:37:32.942Z,15.30
2023-02-06T22:39:59.899Z,16.40
2023-02-06T22:42:26.720Z,16.20
2023-02-06T22:44:53.300Z,17.90
2023-02-06T22:47:19.786Z,17.30
2023-02-06T22:49:49.198Z,16.90
2023-02-06T22:52:34.628Z,17.30
2023-02-06T22:55:03.646Z,18.20
2023-02-06T22:57:32.893Z,18.60
2023-02-06T22:59:59.594Z,17.70
2023-02-06T23:02:26.238Z,17.20
2023-02-06T23:04:53.490Z,19.10
2023-02-06T23:07:20.225Z,18.80
2023-02-06T23:09:49.034Z,19.10
2023-02-06T23:12:15.900Z,16.40
2023-02-06T23:14:42.999Z,17.80
2023-02-06T23:17:10.465Z,17.10
2023-02-06T23:19:38.640Z,15.90
2023-02-06T23:22:05.332Z,17.30
2023-02-06T23:24:31.908Z,16.20
2023-02-06T23:26:58.322Z,15.50
2023-02-06T23:29:25.287Z,16.30
2023-02-06T23:31:52.495Z,16.00
2023-02-06T23:34:19.783Z,15.60
2023-02-06T23:39:14.615Z,15.10
2023-02-06T23:41:41.336Z,16.80
2023-02-06T23:44:08.994Z,15.80
2023-02-06T23:46:38.741Z,15.10
2023-02-06T23:49:05.941Z,17.10
2023-02-06T23:51:32.918Z,16.80
2023-02-06T23:53:59.453Z,15.90
2023-02-06T23:56:28.122Z,17.70
2023-02-06T23:58:56.082Z,17.60
